Lakeville, Indiana
Current Conditions -  °F | °C
As of 2:54 PM on Thursday 18 Dec 2014 (Local Time) from KSBN Reporting Station
Overcast Overcast  
Wind Chill: 21°   Ceiling: 1900
Heat Index: 28°   Visibility: 8mi
Dew Point: 22°   Wind: 7mph
Humidity: 78%   Direction: 230°SW
Pressure: 30.22"   Gusts: NA
Location:  41.52°N, 86.27°W
Report Text: KSBN 181954Z AUTO 23006KT 8SM OVC019 M02/M06 A3022 RMK AO2 SLP242 T10221056
Loading
Personal Weather Stations






























Interactive Weather Map New forecast layout! Learn more

10-Day Weather Forecast

Advertisements
Track Severe Weather on mobile